sensor_id;sensor_type;location;lat;lon;timestamp;noise_LAeq;noise_LA_min;noise_LA_max;noise_LA01;noise_LA95
82733;Laerm;72790;51.538;5.968;2023-11-18T00:00:46;39.18;33.69;56.42;;
82733;Laerm;72790;51.538;5.968;2023-11-18T00:04:46;36.68;32.96;42.43;;
82733;Laerm;72790;51.538;5.968;2023-11-18T00:08:46;36.13;33.12;43.13;;
82733;Laerm;72790;51.538;5.968;2023-11-18T00:12:46;35.68;32.93;43.9;;
82733;Laerm;72790;51.538;5.968;2023-11-18T00:16:46;36.49;33.12;45.59;;
82733;Laerm;72790;51.538;5.968;2023-11-18T00:20:46;42.6;33.94;66.48;;
82733;Laerm;72790;51.538;5.968;2023-11-18T00:24:46;35.42;32.99;42.59;;
82733;Laerm;72790;51.538;5.968;2023-11-18T00:28:46;34.76;32.68;38.76;;
82733;Laerm;72790;51.538;5.968;2023-11-18T00:32:46;34.37;32.61;51.5;;
82733;Laerm;72790;51.538;5.968;2023-11-18T00:36:46;33.53;31.77;38.77;;
82733;Laerm;72790;51.538;5.968;2023-11-18T00:40:46;34.45;31.85;42.09;;
82733;Laerm;72790;51.538;5.968;2023-11-18T00:44:46;34.84;32.08;47.24;;
82733;Laerm;72790;51.538;5.968;2023-11-18T00:48:46;33.68;31.91;43.73;;
82733;Laerm;72790;51.538;5.968;2023-11-18T00:52:46;34.41;32.41;42.53;;
82733;Laerm;72790;51.538;5.968;2023-11-18T00:56:46;34.85;32.61;44.52;;
82733;Laerm;72790;51.538;5.968;2023-11-18T01:00:46;36.06;32.48;48.97;;
82733;Laerm;72790;51.538;5.968;2023-11-18T01:04:46;34.45;32.3;56.46;;
82733;Laerm;72790;51.538;5.968;2023-11-18T01:08:46;34.75;32.49;43.13;;
82733;Laerm;72790;51.538;5.968;2023-11-18T01:12:46;34.34;32.27;48.05;;
82733;Laerm;72790;51.538;5.968;2023-11-18T01:16:46;33.87;32.52;42.35;;
82733;Laerm;72790;51.538;5.968;2023-11-18T01:20:46;35.22;32.79;47.36;;
82733;Laerm;72790;51.538;5.968;2023-11-18T01:24:46;34.01;32.38;47.88;;
82733;Laerm;72790;51.538;5.968;2023-11-18T01:28:46;34.05;32.29;41.26;;
82733;Laerm;72790;51.538;5.968;2023-11-18T01:32:46;36.08;32.51;46.99;;
82733;Laerm;72790;51.538;5.968;2023-11-18T01:36:46;33.41;31.91;38.76;;
82733;Laerm;72790;51.538;5.968;2023-11-18T01:40:46;32.84;31.51;40.21;;
82733;Laerm;72790;51.538;5.968;2023-11-18T01:44:46;32.44;31.38;41.05;;
82733;Laerm;72790;51.538;5.968;2023-11-18T01:48:46;33.4;31.24;46.44;;
82733;Laerm;72790;51.538;5.968;2023-11-18T01:52:46;32.92;31.28;43.5;;
82733;Laerm;72790;51.538;5.968;2023-11-18T01:56:46;33.53;31.84;39.49;;
82733;Laerm;72790;51.538;5.968;2023-11-18T02:00:46;33.76;32.27;43.34;;
82733;Laerm;72790;51.538;5.968;2023-11-18T02:04:46;33.53;31.68;43.64;;
82733;Laerm;72790;51.538;5.968;2023-11-18T02:08:46;33.31;32.04;41.7;;
82733;Laerm;72790;51.538;5.968;2023-11-18T02:12:48;33.46;31.98;40.55;;
82733;Laerm;72790;51.538;5.968;2023-11-18T02:16:46;33.35;32;44.65;;
82733;Laerm;72790;51.538;5.968;2023-11-18T02:20:46;33.19;32.13;41.89;;
82733;Laerm;72790;51.538;5.968;2023-11-18T02:24:46;33.9;31.76;40.46;;
82733;Laerm;72790;51.538;5.968;2023-11-18T02:28:46;33.56;31.5;56.57;;
82733;Laerm;72790;51.538;5.968;2023-11-18T02:32:47;32.71;31.29;43.72;;
82733;Laerm;72790;51.538;5.968;2023-11-18T02:36:47;33.64;31.85;41.95;;
82733;Laerm;72790;51.538;5.968;2023-11-18T02:40:46;33.38;31.77;41.26;;
82733;Laerm;72790;51.538;5.968;2023-11-18T02:44:46;33.38;31.77;39.4;;
82733;Laerm;72790;51.538;5.968;2023-11-18T02:48:46;32.17;31.14;36.12;;
82733;Laerm;72790;51.538;5.968;2023-11-18T02:52:46;32.32;31.29;43.98;;
82733;Laerm;72790;51.538;5.968;2023-11-18T02:56:46;32.36;31.3;38.48;;
82733;Laerm;72790;51.538;5.968;2023-11-18T03:00:46;32.78;31.43;43.97;;
82733;Laerm;72790;51.538;5.968;2023-11-18T03:04:46;32.45;31.34;38.87;;
82733;Laerm;72790;51.538;5.968;2023-11-18T03:08:46;33.16;31.68;37.29;;
82733;Laerm;72790;51.538;5.968;2023-11-18T03:12:46;33.54;31.76;40.75;;
82733;Laerm;72790;51.538;5.968;2023-11-18T03:16:46;34.16;31.64;44.91;;
82733;Laerm;72790;51.538;5.968;2023-11-18T03:20:46;33.66;31.68;39.35;;
82733;Laerm;72790;51.538;5.968;2023-11-18T03:24:46;33.49;32.02;39.49;;
82733;Laerm;72790;51.538;5.968;2023-11-18T03:28:46;33.29;31.85;40.9;;
82733;Laerm;72790;51.538;5.968;2023-11-18T03:32:46;33.49;31.56;39.05;;
82733;Laerm;72790;51.538;5.968;2023-11-18T03:36:46;32.81;31.52;40.3;;
82733;Laerm;72790;51.538;5.968;2023-11-18T03:40:46;32.28;31.36;37.22;;
82733;Laerm;72790;51.538;5.968;2023-11-18T03:44:46;32.75;31.82;39.15;;
82733;Laerm;72790;51.538;5.968;2023-11-18T03:48:46;34.31;32.03;42.13;;
82733;Laerm;72790;51.538;5.968;2023-11-18T03:52:46;33.71;32.22;37.03;;
82733;Laerm;72790;51.538;5.968;2023-11-18T03:56:46;33.28;31.94;49.81;;
82733;Laerm;72790;51.538;5.968;2023-11-18T04:00:46;32.87;31.51;43.33;;
82733;Laerm;72790;51.538;5.968;2023-11-18T04:04:46;32.64;31.55;38.93;;
82733;Laerm;72790;51.538;5.968;2023-11-18T04:08:46;33.09;31.59;38.47;;
82733;Laerm;72790;51.538;5.968;2023-11-18T04:12:46;33.38;31.77;39.73;;
82733;Laerm;72790;51.538;5.968;2023-11-18T04:16:46;33.51;31.69;41.08;;
82733;Laerm;72790;51.538;5.968;2023-11-18T04:20:46;33.11;31.7;42.93;;
82733;Laerm;72790;51.538;5.968;2023-11-18T04:24:46;33.25;32.04;35.97;;
82733;Laerm;72790;51.538;5.968;2023-11-18T04:28:46;34.26;32.26;43.63;;
82733;Laerm;72790;51.538;5.968;2023-11-18T04:32:46;33.51;32.03;41.94;;
82733;Laerm;72790;51.538;5.968;2023-11-18T04:36:46;33.18;32.11;39.61;;
82733;Laerm;72790;51.538;5.968;2023-11-18T04:40:46;33.28;32.14;37.04;;
82733;Laerm;72790;51.538;5.968;2023-11-18T04:44:46;34.62;32.78;46.68;;
82733;Laerm;72790;51.538;5.968;2023-11-18T04:48:46;34.31;32.33;39.99;;
82733;Laerm;72790;51.538;5.968;2023-11-18T04:52:46;33.83;32.09;40.34;;
82733;Laerm;72790;51.538;5.968;2023-11-18T04:56:46;33.79;31.96;44.3;;
82733;Laerm;72790;51.538;5.968;2023-11-18T05:00:46;34.18;32.43;44.78;;
82733;Laerm;72790;51.538;5.968;2023-11-18T05:04:46;34.39;32.48;46.48;;
82733;Laerm;72790;51.538;5.968;2023-11-18T05:08:46;35.24;32.29;48.84;;
82733;Laerm;72790;51.538;5.968;2023-11-18T05:12:46;34.3;32.37;44.47;;
82733;Laerm;72790;51.538;5.968;2023-11-18T05:16:46;34.35;32.42;46.91;;
82733;Laerm;72790;51.538;5.968;2023-11-18T05:20:46;34.62;32.53;40.29;;
82733;Laerm;72790;51.538;5.968;2023-11-18T05:24:46;35.18;32.5;47.03;;
82733;Laerm;72790;51.538;5.968;2023-11-18T05:28:46;35.22;32.27;50.93;;
82733;Laerm;72790;51.538;5.968;2023-11-18T05:32:46;34.23;32.82;44.07;;
82733;Laerm;72790;51.538;5.968;2023-11-18T05:36:46;34.91;33.11;46.06;;
82733;Laerm;72790;51.538;5.968;2023-11-18T05:40:46;34.82;33.15;38.69;;
82733;Laerm;72790;51.538;5.968;2023-11-18T05:44:46;35.22;33.16;40.1;;
82733;Laerm;72790;51.538;5.968;2023-11-18T05:48:46;36.38;32.99;54.25;;
82733;Laerm;72790;51.538;5.968;2023-11-18T05:52:46;36.37;33.22;44.07;;
82733;Laerm;72790;51.538;5.968;2023-11-18T05:56:46;35.23;33.11;39.21;;
82733;Laerm;72790;51.538;5.968;2023-11-18T06:00:46;37.3;33.45;49.53;;
82733;Laerm;72790;51.538;5.968;2023-11-18T06:04:46;35.75;33.07;45.06;;
82733;Laerm;72790;51.538;5.968;2023-11-18T06:08:46;35.12;32.85;45.27;;
82733;Laerm;72790;51.538;5.968;2023-11-18T06:12:46;36.2;33.59;46.42;;
82733;Laerm;72790;51.538;5.968;2023-11-18T06:16:47;37.38;34.17;51.27;;
82733;Laerm;72790;51.538;5.968;2023-11-18T06:20:46;37.17;33.54;52.2;;
82733;Laerm;72790;51.538;5.968;2023-11-18T06:24:46;37.73;34.15;52.59;;
82733;Laerm;72790;51.538;5.968;2023-11-18T06:28:47;37.4;33.78;54.07;;
82733;Laerm;72790;51.538;5.968;2023-11-18T06:32:46;39.99;33.85;62.87;;
82733;Laerm;72790;51.538;5.968;2023-11-18T06:36:46;41.69;34.23;59.24;;
82733;Laerm;72790;51.538;5.968;2023-11-18T06:40:46;38.41;34.39;58.73;;
82733;Laerm;72790;51.538;5.968;2023-11-18T06:44:46;37.49;35.28;52.1;;
82733;Laerm;72790;51.538;5.968;2023-11-18T06:48:46;40.95;35.32;59.29;;
82733;Laerm;72790;51.538;5.968;2023-11-18T06:52:46;39.1;35.42;51.04;;
82733;Laerm;72790;51.538;5.968;2023-11-18T06:56:46;39.59;36.27;48.58;;
82733;Laerm;72790;51.538;5.968;2023-11-18T07:00:46;40.35;35.59;58.21;;
82733;Laerm;72790;51.538;5.968;2023-11-18T07:04:46;40.38;34.41;50.55;;
82733;Laerm;72790;51.538;5.968;2023-11-18T07:08:46;39.04;35.29;53.55;;
82733;Laerm;72790;51.538;5.968;2023-11-18T07:12:46;39.89;35.24;51.24;;
82733;Laerm;72790;51.538;5.968;2023-11-18T07:16:46;40.61;35.46;49.84;;
82733;Laerm;72790;51.538;5.968;2023-11-18T07:20:46;37.96;35.32;53.01;;
82733;Laerm;72790;51.538;5.968;2023-11-18T07:24:46;39.07;35.59;50.84;;
82733;Laerm;72790;51.538;5.968;2023-11-18T07:28:46;38.73;35.97;47.01;;
82733;Laerm;72790;51.538;5.968;2023-11-18T07:32:46;38.28;35.37;44.38;;
82733;Laerm;72790;51.538;5.968;2023-11-18T07:36:46;39.22;35.55;53.33;;
82733;Laerm;72790;51.538;5.968;2023-11-18T07:40:46;42.53;36.22;52.47;;
82733;Laerm;72790;51.538;5.968;2023-11-18T07:44:46;41.64;36.16;55.12;;
82733;Laerm;72790;51.538;5.968;2023-11-18T07:48:46;39.62;36.59;51.25;;
82733;Laerm;72790;51.538;5.968;2023-11-18T07:52:46;42.1;36.83;60.17;;
82733;Laerm;72790;51.538;5.968;2023-11-18T07:56:46;42.34;37.21;59.02;;
82733;Laerm;72790;51.538;5.968;2023-11-18T08:00:46;39.71;36.6;51.14;;
82733;Laerm;72790;51.538;5.968;2023-11-18T08:04:46;42.1;37.27;54.32;;
82733;Laerm;72790;51.538;5.968;2023-11-18T08:08:46;40.95;36.21;50.6;;
82733;Laerm;72790;51.538;5.968;2023-11-18T08:12:46;40.67;37.46;49.96;;
82733;Laerm;72790;51.538;5.968;2023-11-18T08:16:46;41.05;36.91;51.56;;
82733;Laerm;72790;51.538;5.968;2023-11-18T08:20:46;41.42;36.93;50.78;;
82733;Laerm;72790;51.538;5.968;2023-11-18T08:24:47;40.75;36.95;55.18;;
82733;Laerm;72790;51.538;5.968;2023-11-18T08:28:46;42.62;37.55;53.67;;
82733;Laerm;72790;51.538;5.968;2023-11-18T08:32:46;40.74;37.03;52.73;;
82733;Laerm;72790;51.538;5.968;2023-11-18T08:36:46;40.56;37.44;48.97;;
82733;Laerm;72790;51.538;5.968;2023-11-18T08:40:46;42.58;37.07;64.47;;
82733;Laerm;72790;51.538;5.968;2023-11-18T08:44:46;39.7;37.01;49.96;;
82733;Laerm;72790;51.538;5.968;2023-11-18T08:48:46;41.5;37.18;53.38;;
82733;Laerm;72790;51.538;5.968;2023-11-18T08:52:46;42.53;37.96;65.45;;
82733;Laerm;72790;51.538;5.968;2023-11-18T08:56:46;43.31;38.25;63.61;;
82733;Laerm;72790;51.538;5.968;2023-11-18T09:00:47;41.14;37.71;49.09;;
82733;Laerm;72790;51.538;5.968;2023-11-18T09:04:46;40.72;37.58;50.28;;
82733;Laerm;72790;51.538;5.968;2023-11-18T09:08:47;45.31;37.68;67.31;;
82733;Laerm;72790;51.538;5.968;2023-11-18T09:12:47;45.43;38.52;68.47;;
82733;Laerm;72790;51.538;5.968;2023-11-18T09:16:47;41.68;38.03;58.45;;
82733;Laerm;72790;51.538;5.968;2023-11-18T09:20:47;40.8;37.6;55.92;;
82733;Laerm;72790;51.538;5.968;2023-11-18T09:24:46;41.28;37.5;55.13;;
82733;Laerm;72790;51.538;5.968;2023-11-18T09:28:46;41.85;37.98;62.96;;
82733;Laerm;72790;51.538;5.968;2023-11-18T09:32:47;42.16;37.87;67.69;;
82733;Laerm;72790;51.538;5.968;2023-11-18T09:36:46;44.05;38.25;57.16;;
82733;Laerm;72790;51.538;5.968;2023-11-18T09:40:47;43.9;38.3;58.73;;
82733;Laerm;72790;51.538;5.968;2023-11-18T09:44:46;41.22;37.98;56.75;;
82733;Laerm;72790;51.538;5.968;2023-11-18T09:48:47;42.05;38.21;53.79;;
82733;Laerm;72790;51.538;5.968;2023-11-18T09:52:48;43.36;39.1;59.55;;
82733;Laerm;72790;51.538;5.968;2023-11-18T09:56:49;42.74;37.92;52.93;;
82733;Laerm;72790;51.538;5.968;2023-11-18T10:00:47;45.41;38.15;69.61;;
82733;Laerm;72790;51.538;5.968;2023-11-18T10:04:47;50.16;42.07;77.77;;
82733;Laerm;72790;51.538;5.968;2023-11-18T10:08:47;50.22;39.77;75.66;;
82733;Laerm;72790;51.538;5.968;2023-11-18T10:12:47;50.72;41.01;77.01;;
82733;Laerm;72790;51.538;5.968;2023-11-18T10:16:47;47.25;40.94;72.7;;
82733;Laerm;72790;51.538;5.968;2023-11-18T10:20:47;47.81;41.26;73.53;;
82733;Laerm;72790;51.538;5.968;2023-11-18T10:24:47;55.05;41.67;85.05;;
82733;Laerm;72790;51.538;5.968;2023-11-18T10:28:47;55.67;41.47;84.46;;
82733;Laerm;72790;51.538;5.968;2023-11-18T10:32:56;57.45;42.56;88.43;;
82733;Laerm;72790;51.538;5.968;2023-11-18T10:36:58;51.45;39.53;78.06;;
82733;Laerm;72790;51.538;5.968;2023-11-18T10:40:47;44.13;39.62;68.83;;
82733;Laerm;72790;51.538;5.968;2023-11-18T10:44:54;45.56;39.93;75.17;;
82733;Laerm;72790;51.538;5.968;2023-11-18T10:48:47;62.82;39.3;94;;
82733;Laerm;72790;51.538;5.968;2023-11-18T10:52:47;62.05;45.78;90.47;;
82733;Laerm;72790;51.538;5.968;2023-11-18T10:56:47;60.08;43.68;88.51;;
82733;Laerm;72790;51.538;5.968;2023-11-18T11:00:47;64.81;44.67;98.17;;
82733;Laerm;72790;51.538;5.968;2023-11-18T11:04:47;56.66;42.6;87.85;;
82733;Laerm;72790;51.538;5.968;2023-11-18T11:08:47;61.15;43.47;88.53;;
82733;Laerm;72790;51.538;5.968;2023-11-18T11:12:49;56.09;40.14;86.6;;
82733;Laerm;72790;51.538;5.968;2023-11-18T11:16:47;49.53;38.98;78.39;;
82733;Laerm;72790;51.538;5.968;2023-11-18T11:20:47;46.29;39.18;67.56;;
82733;Laerm;72790;51.538;5.968;2023-11-18T11:24:50;45.91;40.34;61.37;;
82733;Laerm;72790;51.538;5.968;2023-11-18T11:28:48;42.95;38.07;63.75;;
82733;Laerm;72790;51.538;5.968;2023-11-18T11:32:49;44.3;37.91;60.56;;
82733;Laerm;72790;51.538;5.968;2023-11-18T11:36:47;41.61;38.05;54.18;;
82733;Laerm;72790;51.538;5.968;2023-11-18T11:40:47;61.44;37.25;92.44;;
82733;Laerm;72790;51.538;5.968;2023-11-18T11:44:47;61.74;41.03;90.71;;
82733;Laerm;72790;51.538;5.968;2023-11-18T11:48:47;68.36;40.29;101.16;;
82733;Laerm;72790;51.538;5.968;2023-11-18T11:52:48;64.34;44.36;95.01;;
82733;Laerm;72790;51.538;5.968;2023-11-18T11:56:47;55.98;40.51;84.93;;
82733;Laerm;72790;51.538;5.968;2023-11-18T12:00:47;67.22;39.24;101.21;;
82733;Laerm;72790;51.538;5.968;2023-11-18T12:04:47;50.12;38.46;79.96;;
82733;Laerm;72790;51.538;5.968;2023-11-18T12:08:47;42.13;37.85;56.42;;
82733;Laerm;72790;51.538;5.968;2023-11-18T12:12:47;60.33;40.01;90.79;;
82733;Laerm;72790;51.538;5.968;2023-11-18T12:17:02;52.05;37.87;83.84;;
82733;Laerm;72790;51.538;5.968;2023-11-18T12:20:47;58.12;37.98;89.63;;
82733;Laerm;72790;51.538;5.968;2023-11-18T12:28:47;48.71;38.34;78.65;;
82733;Laerm;72790;51.538;5.968;2023-11-18T12:33:03;48.86;38.05;75.44;;
82733;Laerm;72790;51.538;5.968;2023-11-18T12:36:55;45.2;38.61;73.51;;
82733;Laerm;72790;51.538;5.968;2023-11-18T12:40:51;44.46;38.42;68.28;;
82733;Laerm;72790;51.538;5.968;2023-11-18T12:44:52;45.71;38.43;72.5;;
82733;Laerm;72790;51.538;5.968;2023-11-18T12:48:47;48.91;38.88;77.52;;
82733;Laerm;72790;51.538;5.968;2023-11-18T12:52:47;47.2;38.89;72.65;;
82733;Laerm;72790;51.538;5.968;2023-11-18T12:56:47;47.58;38.22;73.22;;
82733;Laerm;72790;51.538;5.968;2023-11-18T13:00:47;45.23;38.32;69.76;;
82733;Laerm;72790;51.538;5.968;2023-11-18T13:04:47;48.69;38.6;72.87;;
82733;Laerm;72790;51.538;5.968;2023-11-18T13:08:47;52.61;38.91;82.79;;
82733;Laerm;72790;51.538;5.968;2023-11-18T13:12:47;51.03;38.78;79.4;;
82733;Laerm;72790;51.538;5.968;2023-11-18T13:16:47;49.99;39.21;77.67;;
82733;Laerm;72790;51.538;5.968;2023-11-18T13:20:54;55.36;38.77;85.42;;
82733;Laerm;72790;51.538;5.968;2023-11-18T13:24:47;44.45;38.76;57.09;;
82733;Laerm;72790;51.538;5.968;2023-11-18T13:28:47;43.69;38.99;56.72;;
82733;Laerm;72790;51.538;5.968;2023-11-18T13:32:47;43.67;38.6;62.17;;
82733;Laerm;72790;51.538;5.968;2023-11-18T13:36:47;44.48;39.14;62.69;;
82733;Laerm;72790;51.538;5.968;2023-11-18T13:40:49;47.96;38.97;70.8;;
82733;Laerm;72790;51.538;5.968;2023-11-18T13:44:47;46.46;38.67;67.84;;
82733;Laerm;72790;51.538;5.968;2023-11-18T13:48:47;43.23;38.02;55.09;;
82733;Laerm;72790;51.538;5.968;2023-11-18T13:52:47;45.68;38.86;62.39;;
82733;Laerm;72790;51.538;5.968;2023-11-18T13:56:47;48.54;38.07;68.46;;
82733;Laerm;72790;51.538;5.968;2023-11-18T14:00:47;49.8;38.21;74.76;;
82733;Laerm;72790;51.538;5.968;2023-11-18T14:04:47;59.06;39.47;86.47;;
82733;Laerm;72790;51.538;5.968;2023-11-18T14:08:47;57.13;40.12;79.64;;
82733;Laerm;72790;51.538;5.968;2023-11-18T14:13:03;54.34;39.23;79.74;;
82733;Laerm;72790;51.538;5.968;2023-11-18T14:16:47;65.67;38.94;95.81;;
82733;Laerm;72790;51.538;5.968;2023-11-18T14:20:47;61.7;40.49;89.97;;
82733;Laerm;72790;51.538;5.968;2023-11-18T14:24:47;70.36;42.67;101.23;;
82733;Laerm;72790;51.538;5.968;2023-11-18T14:28:47;71.56;47.27;96.8;;
82733;Laerm;72790;51.538;5.968;2023-11-18T14:32:47;71.13;42.32;101.42;;
82733;Laerm;72790;51.538;5.968;2023-11-18T14:36:47;59.8;39.59;86.68;;
82733;Laerm;72790;51.538;5.968;2023-11-18T14:40:47;54.39;39.24;81.06;;
82733;Laerm;72790;51.538;5.968;2023-11-18T14:44:47;62.22;39.78;90.05;;
82733;Laerm;72790;51.538;5.968;2023-11-18T14:48:47;64.27;40.85;90.34;;
82733;Laerm;72790;51.538;5.968;2023-11-18T14:52:47;62.19;40.65;89.62;;
82733;Laerm;72790;51.538;5.968;2023-11-18T14:56:47;58.61;39.68;84.49;;
82733;Laerm;72790;51.538;5.968;2023-11-18T15:00:47;64.99;39.64;91.81;;
82733;Laerm;72790;51.538;5.968;2023-11-18T15:04:47;69.22;42.78;99.23;;
82733;Laerm;72790;51.538;5.968;2023-11-18T15:08:47;64.87;41.99;93.7;;
82733;Laerm;72790;51.538;5.968;2023-11-18T15:12:48;59.45;38.83;89.5;;
82733;Laerm;72790;51.538;5.968;2023-11-18T15:16:47;58.68;39.29;90.32;;
82733;Laerm;72790;51.538;5.968;2023-11-18T15:20:47;66.28;40.95;97.98;;
82733;Laerm;72790;51.538;5.968;2023-11-18T15:24:47;66.24;41.47;91.06;;
82733;Laerm;72790;51.538;5.968;2023-11-18T15:28:47;62.27;41.72;84.48;;
82733;Laerm;72790;51.538;5.968;2023-11-18T15:32:47;59.42;39.5;90.36;;
82733;Laerm;72790;51.538;5.968;2023-11-18T15:36:47;51.48;39.26;74.12;;
82733;Laerm;72790;51.538;5.968;2023-11-18T15:40:48;49.61;38.85;72.35;;
82733;Laerm;72790;51.538;5.968;2023-11-18T15:44:47;47.53;38.17;64.23;;
82733;Laerm;72790;51.538;5.968;2023-11-18T15:48:47;47.49;38.09;73.26;;
82733;Laerm;72790;51.538;5.968;2023-11-18T15:52:48;52.26;37.85;80.55;;
82733;Laerm;72790;51.538;5.968;2023-11-18T15:56:47;49.08;38.43;74.97;;
82733;Laerm;72790;51.538;5.968;2023-11-18T16:00:47;43.67;37.58;64.83;;
82733;Laerm;72790;51.538;5.968;2023-11-18T16:04:47;43.47;37.01;68.17;;
82733;Laerm;72790;51.538;5.968;2023-11-18T16:08:47;41.54;37.23;54.14;;
82733;Laerm;72790;51.538;5.968;2023-11-18T16:12:47;44.93;36.84;65.8;;
82733;Laerm;72790;51.538;5.968;2023-11-18T16:16:47;43.91;36.59;64.6;;
82733;Laerm;72790;51.538;5.968;2023-11-18T16:20:47;42.82;37.46;59.15;;
82733;Laerm;72790;51.538;5.968;2023-11-18T16:24:47;41.72;37.23;54.65;;
82733;Laerm;72790;51.538;5.968;2023-11-18T16:28:47;42.05;36.43;62.45;;
82733;Laerm;72790;51.538;5.968;2023-11-18T16:32:47;45.48;37.01;71.43;;
82733;Laerm;72790;51.538;5.968;2023-11-18T16:36:47;41.73;36.93;56.15;;
82733;Laerm;72790;51.538;5.968;2023-11-18T16:40:47;46.83;36.87;71.74;;
82733;Laerm;72790;51.538;5.968;2023-11-18T16:44:47;44;37.16;72.13;;
82733;Laerm;72790;51.538;5.968;2023-11-18T16:48:47;41.7;37.45;55.51;;
82733;Laerm;72790;51.538;5.968;2023-11-18T16:52:47;42.86;36.81;62.33;;
82733;Laerm;72790;51.538;5.968;2023-11-18T16:56:47;44.14;37.09;61.55;;
82733;Laerm;72790;51.538;5.968;2023-11-18T17:00:47;43.92;37.3;61;;
82733;Laerm;72790;51.538;5.968;2023-11-18T17:04:47;45.71;37.69;67.88;;
82733;Laerm;72790;51.538;5.968;2023-11-18T17:08:47;44.99;36.91;66.46;;
82733;Laerm;72790;51.538;5.968;2023-11-18T17:12:47;41.78;36.58;60.07;;
82733;Laerm;72790;51.538;5.968;2023-11-18T17:16:47;39.32;35.9;49.01;;
82733;Laerm;72790;51.538;5.968;2023-11-18T17:20:48;38.88;35.6;55.46;;
82733;Laerm;72790;51.538;5.968;2023-11-18T17:24:47;43.56;35.07;61.91;;
82733;Laerm;72790;51.538;5.968;2023-11-18T17:28:47;38.13;34.85;51.57;;
82733;Laerm;72790;51.538;5.968;2023-11-18T17:32:48;38.77;34.76;53.8;;
82733;Laerm;72790;51.538;5.968;2023-11-18T17:36:47;37.53;34.42;46.14;;
82733;Laerm;72790;51.538;5.968;2023-11-18T17:40:47;40;34.48;56.49;;
82733;Laerm;72790;51.538;5.968;2023-11-18T17:44:47;39.87;34.77;56.06;;
82733;Laerm;72790;51.538;5.968;2023-11-18T17:48:47;37.9;35.2;47.06;;
82733;Laerm;72790;51.538;5.968;2023-11-18T17:52:47;38.46;35.11;47.48;;
82733;Laerm;72790;51.538;5.968;2023-11-18T17:56:47;45.46;34.54;64.34;;
82733;Laerm;72790;51.538;5.968;2023-11-18T18:00:47;37.38;34.46;49.97;;
82733;Laerm;72790;51.538;5.968;2023-11-18T18:04:47;47.48;35.51;60.38;;
82733;Laerm;72790;51.538;5.968;2023-11-18T18:08:47;45.45;34.38;56.09;;
82733;Laerm;72790;51.538;5.968;2023-11-18T18:12:47;45.62;34.1;65.28;;
82733;Laerm;72790;51.538;5.968;2023-11-18T18:16:47;44.03;35.03;72.35;;
82733;Laerm;72790;51.538;5.968;2023-11-18T18:20:47;43.5;34.6;66.68;;
82733;Laerm;72790;51.538;5.968;2023-11-18T18:24:47;40.7;35.06;60.11;;
82733;Laerm;72790;51.538;5.968;2023-11-18T18:28:47;39.26;35.01;57.02;;
82733;Laerm;72790;51.538;5.968;2023-11-18T18:32:47;41.17;34.67;54.04;;
82733;Laerm;72790;51.538;5.968;2023-11-18T18:36:47;40.02;35.05;61.99;;
82733;Laerm;72790;51.538;5.968;2023-11-18T18:40:47;38.64;35.08;47.55;;
82733;Laerm;72790;51.538;5.968;2023-11-18T18:44:47;38.28;34.83;50.64;;
82733;Laerm;72790;51.538;5.968;2023-11-18T18:48:47;41.51;34.69;64.88;;
82733;Laerm;72790;51.538;5.968;2023-11-18T18:52:47;40.23;34.9;62.84;;
82733;Laerm;72790;51.538;5.968;2023-11-18T18:56:47;39.79;35.03;61.67;;
82733;Laerm;72790;51.538;5.968;2023-11-18T19:00:47;39.83;35.14;56.43;;
82733;Laerm;72790;51.538;5.968;2023-11-18T19:04:47;37.58;34.38;52.13;;
82733;Laerm;72790;51.538;5.968;2023-11-18T19:08:47;36.64;33.96;47.46;;
82733;Laerm;72790;51.538;5.968;2023-11-18T19:12:47;37.5;33.78;45.07;;
82733;Laerm;72790;51.538;5.968;2023-11-18T19:16:47;38.15;34.91;52.42;;
82733;Laerm;72790;51.538;5.968;2023-11-18T19:20:47;37.57;34.28;53.93;;
82733;Laerm;72790;51.538;5.968;2023-11-18T19:24:47;39.2;34.72;55.97;;
82733;Laerm;72790;51.538;5.968;2023-11-18T19:28:47;38.67;34.38;52.85;;
82733;Laerm;72790;51.538;5.968;2023-11-18T19:32:47;37.9;34.45;51.72;;
82733;Laerm;72790;51.538;5.968;2023-11-18T19:36:48;37.78;34.58;46.46;;
82733;Laerm;72790;51.538;5.968;2023-11-18T19:40:47;40.07;34.5;54.31;;
82733;Laerm;72790;51.538;5.968;2023-11-18T19:44:47;37.24;34.69;49.31;;
82733;Laerm;72790;51.538;5.968;2023-11-18T19:48:47;40.36;35.03;61.64;;
82733;Laerm;72790;51.538;5.968;2023-11-18T19:52:47;37.38;34.03;54.01;;
82733;Laerm;72790;51.538;5.968;2023-11-18T19:56:47;39.04;34.06;57.74;;
82733;Laerm;72790;51.538;5.968;2023-11-18T20:00:48;37.71;34.29;50.17;;
82733;Laerm;72790;51.538;5.968;2023-11-18T20:04:47;37.79;34.18;57.79;;
82733;Laerm;72790;51.538;5.968;2023-11-18T20:08:48;38.18;33.1;59.81;;
82733;Laerm;72790;51.538;5.968;2023-11-18T20:12:47;36.07;33.42;43.12;;
82733;Laerm;72790;51.538;5.968;2023-11-18T20:16:48;36.66;32.88;53.21;;
82733;Laerm;72790;51.538;5.968;2023-11-18T20:20:48;41.39;33.78;61.84;;
82733;Laerm;72790;51.538;5.968;2023-11-18T20:24:47;36.64;33.75;44.84;;
82733;Laerm;72790;51.538;5.968;2023-11-18T20:28:48;36.93;33.92;44.44;;
82733;Laerm;72790;51.538;5.968;2023-11-18T20:32:47;37.13;33.86;46.3;;
82733;Laerm;72790;51.538;5.968;2023-11-18T20:36:48;37.47;33.48;55.87;;
82733;Laerm;72790;51.538;5.968;2023-11-18T20:40:48;35.31;33.12;45.1;;
82733;Laerm;72790;51.538;5.968;2023-11-18T20:44:48;35.93;32.87;53.96;;
82733;Laerm;72790;51.538;5.968;2023-11-18T20:48:48;35.96;33.24;45.55;;
82733;Laerm;72790;51.538;5.968;2023-11-18T20:52:48;35.84;33.3;45.37;;
82733;Laerm;72790;51.538;5.968;2023-11-18T20:56:48;37.29;33.25;54.35;;
82733;Laerm;72790;51.538;5.968;2023-11-18T21:00:48;40.35;32.85;71.51;;
82733;Laerm;72790;51.538;5.968;2023-11-18T21:04:48;38.4;33.59;63.95;;
82733;Laerm;72790;51.538;5.968;2023-11-18T21:08:48;38.02;33.24;57.27;;
82733;Laerm;72790;51.538;5.968;2023-11-18T21:12:48;37.33;33.09;51.45;;
82733;Laerm;72790;51.538;5.968;2023-11-18T21:16:48;37.62;33.48;55.88;;
82733;Laerm;72790;51.538;5.968;2023-11-18T21:20:48;37.92;33.66;49.52;;
82733;Laerm;72790;51.538;5.968;2023-11-18T21:24:48;38.29;33.27;51.92;;
82733;Laerm;72790;51.538;5.968;2023-11-18T21:28:48;36.64;33.24;52.16;;
82733;Laerm;72790;51.538;5.968;2023-11-18T21:32:48;35.91;33.13;46.18;;
82733;Laerm;72790;51.538;5.968;2023-11-18T21:36:48;34.54;32.81;41.82;;
82733;Laerm;72790;51.538;5.968;2023-11-18T21:40:48;45.13;33.49;78.47;;
82733;Laerm;72790;51.538;5.968;2023-11-18T21:44:48;36.72;33.44;46.37;;
82733;Laerm;72790;51.538;5.968;2023-11-18T21:48:48;35.43;33.01;52.26;;
82733;Laerm;72790;51.538;5.968;2023-11-18T21:52:48;35.5;32.74;53.68;;
82733;Laerm;72790;51.538;5.968;2023-11-18T21:56:48;37.06;33.14;53.52;;
82733;Laerm;72790;51.538;5.968;2023-11-18T22:00:48;37.78;33.64;50.43;;
82733;Laerm;72790;51.538;5.968;2023-11-18T22:04:48;35.99;33.17;48.33;;
82733;Laerm;72790;51.538;5.968;2023-11-18T22:08:48;35.37;32.58;42.9;;
82733;Laerm;72790;51.538;5.968;2023-11-18T22:12:48;35.39;33.03;41.99;;
82733;Laerm;72790;51.538;5.968;2023-11-18T22:16:48;35.55;33;44.22;;
82733;Laerm;72790;51.538;5.968;2023-11-18T22:20:48;35.77;33.23;57.27;;
82733;Laerm;72790;51.538;5.968;2023-11-18T22:24:48;36.87;33.06;55.36;;
82733;Laerm;72790;51.538;5.968;2023-11-18T22:28:48;37.22;33.85;53.22;;